Kimesville, North Carolina
Current Conditions -  °F | °C
As of 6:15 PM on Tuesday 25 Nov 2014 (Local Time) from K5W8 Reporting Station
Drizzle Drizzle  
Wind Chill: 53°   Ceiling: 9000
Heat Index: 53°   Visibility: 10mi
Dew Point: 43°   Wind: 0mph
Humidity: 69%   Direction: NA
Pressure: 30.06"   Gusts: NA
Location:  35.8814°N, 79.5689°W
Report Text: K5W8 252315Z AUTO 00000KT 10SM -DZ SCT029 OVC090 12/06 A3006 RMK AO2 T01170062
Loading
Personal Weather Stations






























Interactive Weather Map New forecast layout! Learn more

10-Day Weather Forecast

Advertisements
Track Severe Weather on mobile